createdAt,value
2023-10-07T00:00:03.785Z,30.4
2023-10-07T00:01:05.913Z,30.4
2023-10-07T00:02:08.328Z,30.4
2023-10-07T00:03:10.857Z,30.4
2023-10-07T00:04:13.699Z,30.4
2023-10-07T00:05:15.668Z,30.4
2023-10-07T00:06:17.943Z,30.4
2023-10-07T00:07:20.052Z,30.5
2023-10-07T00:08:22.373Z,30.5
2023-10-07T00:09:24.656Z,30.5
2023-10-07T00:10:27.138Z,30.5
2023-10-07T00:11:29.690Z,30.5
2023-10-07T00:12:31.443Z,30.5
2023-10-07T00:13:33.539Z,30.5
2023-10-07T00:14:35.550Z,30.5
2023-10-07T00:15:37.670Z,30.5
2023-10-07T00:16:39.982Z,30.5
2023-10-07T00:17:42.657Z,30.5
2023-10-07T00:18:44.700Z,30.5
2023-10-07T00:19:46.909Z,30.5
2023-10-07T00:20:48.887Z,30.5
2023-10-07T00:21:50.997Z,30.5
2023-10-07T00:22:53.024Z,30.5
2023-10-07T00:23:55.267Z,30.5
2023-10-07T00:24:57.409Z,30.5
2023-10-07T00:26:00.177Z,30.5
2023-10-07T00:27:02.272Z,30.5
2023-10-07T00:28:04.454Z,30.5
2023-10-07T00:29:06.671Z,30.5
2023-10-07T00:30:08.925Z,30.5
2023-10-07T00:31:11.056Z,30.5
2023-10-07T00:32:13.409Z,30.5
2023-10-07T00:33:16.395Z,30.5
2023-10-07T00:34:18.449Z,30.5
2023-10-07T00:35:20.552Z,30.5
2023-10-07T00:36:22.555Z,30.5
2023-10-07T00:37:24.837Z,30.6
2023-10-07T00:38:27.144Z,30.6
2023-10-07T00:39:29.231Z,30.6
2023-10-07T00:40:31.345Z,30.6
2023-10-07T00:41:33.562Z,30.6
2023-10-07T00:42:35.685Z,30.6
2023-10-07T00:43:37.920Z,30.6
2023-10-07T00:44:40.527Z,30.6
2023-10-07T00:45:42.985Z,30.6
2023-10-07T00:46:45.114Z,30.6
2023-10-07T00:47:47.343Z,30.6
2023-10-07T00:48:49.646Z,30.6
2023-10-07T00:49:51.980Z,30.6
2023-10-07T00:50:54.304Z,30.6
2023-10-07T00:51:55.984Z,30.6
2023-10-07T00:52:58.116Z,30.6
2023-10-07T00:54:00.453Z,30.6
2023-10-07T00:55:02.581Z,30.6
2023-10-07T00:56:04.677Z,30.6
2023-10-07T00:57:06.946Z,30.6
2023-10-07T00:58:08.899Z,30.6
2023-10-07T00:59:10.857Z,30.6
2023-10-07T01:00:12.788Z,30.6
2023-10-07T01:01:15.014Z,30.6
2023-10-07T01:02:17.215Z,30.6
2023-10-07T01:03:19.431Z,30.6
2023-10-07T01:04:21.591Z,30.6
2023-10-07T01:05:23.925Z,30.6
2023-10-07T01:06:25.998Z,30.6
2023-10-07T01:07:28.255Z,30.6
2023-10-07T01:08:30.747Z,30.6
2023-10-07T01:09:32.866Z,30.6
2023-10-07T01:10:35.040Z,30.6
2023-10-07T01:11:37.296Z,30.6
2023-10-07T01:12:39.369Z,30.6
2023-10-07T01:13:41.673Z,30.6
2023-10-07T01:14:43.850Z,30.6
2023-10-07T01:15:45.908Z,30.6
2023-10-07T01:16:48.105Z,30.6
2023-10-07T01:17:50.347Z,30.6
2023-10-07T01:18:52.310Z,30.6
2023-10-07T01:19:54.884Z,30.6
2023-10-07T01:20:56.869Z,30.6
2023-10-07T01:21:58.775Z,30.6
2023-10-07T01:23:01.074Z,30.6
2023-10-07T01:24:03.286Z,30.6
2023-10-07T01:25:05.383Z,30.6
2023-10-07T01:26:07.657Z,30.6
2023-10-07T01:27:09.835Z,30.6
2023-10-07T01:28:11.953Z,30.6
2023-10-07T01:29:13.702Z,30.6
2023-10-07T01:30:15.840Z,30.6
2023-10-07T01:31:18.067Z,30.6
2023-10-07T01:32:20.254Z,30.7
2023-10-07T01:33:22.234Z,30.7
2023-10-07T01:34:24.313Z,30.7
2023-10-07T01:35:26.451Z,30.7
2023-10-07T01:36:28.525Z,30.7
2023-10-07T01:37:30.720Z,30.7
2023-10-07T01:38:32.722Z,30.7
2023-10-07T01:39:34.725Z,30.7
2023-10-07T01:40:37.162Z,30.7
2023-10-07T01:41:39.102Z,30.7
2023-10-07T01:42:41.256Z,30.7
2023-10-07T01:43:43.285Z,30.7
2023-10-07T01:44:45.534Z,30.7
2023-10-07T01:45:47.687Z,30.7
2023-10-07T01:46:49.799Z,30.7
2023-10-07T01:47:52.284Z,30.7
2023-10-07T01:48:54.390Z,30.7
2023-10-07T01:49:56.558Z,30.7
2023-10-07T01:50:58.934Z,30.7
2023-10-07T01:52:00.817Z,30.7
2023-10-07T01:53:03.125Z,30.7
2023-10-07T01:54:06.065Z,30.7
2023-10-07T01:55:07.871Z,30.7
2023-10-07T01:56:10.084Z,30.7
2023-10-07T01:57:12.372Z,30.7
2023-10-07T01:58:14.631Z,30.7
2023-10-07T01:59:17.395Z,30.7
2023-10-07T02:00:19.637Z,30.7
2023-10-07T02:01:21.844Z,30.7
2023-10-07T02:02:23.844Z,30.7
2023-10-07T02:03:26.285Z,30.7
2023-10-07T02:04:29.417Z,30.7
2023-10-07T02:05:32.196Z,30.7
2023-10-07T02:06:33.926Z,30.7
2023-10-07T02:07:36.255Z,30.7
2023-10-07T02:08:38.462Z,30.7
2023-10-07T02:09:40.612Z,30.7
2023-10-07T02:10:42.719Z,30.7
2023-10-07T02:11:44.924Z,30.7
2023-10-07T02:12:47.182Z,30.7
2023-10-07T02:13:49.577Z,30.7
2023-10-07T02:14:51.884Z,30.7
2023-10-07T02:15:54.272Z,30.7
2023-10-07T02:16:56.877Z,30.7
2023-10-07T02:17:59.575Z,30.7
2023-10-07T02:19:02.164Z,30.7
2023-10-07T02:20:04.472Z,30.7
2023-10-07T02:21:06.763Z,30.7
2023-10-07T02:22:09.064Z,30.7
2023-10-07T02:23:11.183Z,30.7
2023-10-07T02:24:12.923Z,30.7
2023-10-07T02:25:15.044Z,30.7
2023-10-07T02:26:17.091Z,30.7
2023-10-07T02:27:19.746Z,30.7
2023-10-07T02:28:21.847Z,30.7
2023-10-07T02:29:24.106Z,30.7
2023-10-07T02:30:26.220Z,30.7
2023-10-07T02:31:28.632Z,30.7
2023-10-07T02:32:31.074Z,30.7
2023-10-07T02:33:33.213Z,30.7
2023-10-07T02:34:35.381Z,30.7
2023-10-07T02:35:37.636Z,30.7
2023-10-07T02:36:39.549Z,30.7
2023-10-07T02:37:41.565Z,30.7
2023-10-07T02:38:43.577Z,30.7
2023-10-07T02:39:45.794Z,30.7
2023-10-07T02:40:52.226Z,30.7
2023-10-07T02:41:54.211Z,30.7
2023-10-07T02:42:56.729Z,30.7
2023-10-07T02:43:58.799Z,30.7
2023-10-07T02:45:01.148Z,30.7
2023-10-07T02:46:03.182Z,30.7
2023-10-07T02:47:05.444Z,30.7
2023-10-07T02:48:07.854Z,30.7
2023-10-07T02:49:10.151Z,30.7
2023-10-07T02:50:12.450Z,30.7
2023-10-07T02:51:14.497Z,30.7
2023-10-07T02:52:16.608Z,30.7
2023-10-07T02:53:18.514Z,30.8
2023-10-07T02:54:20.636Z,30.7
2023-10-07T02:55:22.806Z,30.8
2023-10-07T02:56:25.271Z,30.8
2023-10-07T02:57:27.366Z,30.8
2023-10-07T02:58:29.804Z,30.8
2023-10-07T02:59:31.848Z,30.8
2023-10-07T03:00:34.115Z,30.8
2023-10-07T03:01:36.321Z,30.7
2023-10-07T03:02:39.213Z,30.7
2023-10-07T03:03:42.398Z,30.7
2023-10-07T03:04:45.101Z,30.7
2023-10-07T03:05:47.671Z,30.7
2023-10-07T03:06:49.749Z,30.6
2023-10-07T03:07:52.348Z,30.6
2023-10-07T03:08:54.366Z,30.6
2023-10-07T03:09:56.490Z,30.6
2023-10-07T03:10:58.672Z,30.5
2023-10-07T03:12:00.676Z,30.5
2023-10-07T03:13:02.786Z,30.5
2023-10-07T03:14:05.205Z,30.5
2023-10-07T03:15:07.350Z,30.4
2023-10-07T03:16:09.648Z,30.4
2023-10-07T03:17:12.173Z,30.4
2023-10-07T03:18:14.471Z,30.4
2023-10-07T03:19:16.738Z,30.4
2023-10-07T03:20:18.479Z,30.4
2023-10-07T03:21:20.391Z,30.4
2023-10-07T03:22:22.696Z,30.4
2023-10-07T03:23:25.068Z,30.3
2023-10-07T03:24:27.322Z,30.3
2023-10-07T03:25:29.529Z,30.3
2023-10-07T03:26:31.674Z,30.3
2023-10-07T03:27:33.770Z,30.3
2023-10-07T03:28:35.990Z,30.3
2023-10-07T03:29:38.304Z,30.3
2023-10-07T03:30:40.617Z,30.3
2023-10-07T03:31:43.025Z,30.3
2023-10-07T03:32:45.336Z,30.3
2023-10-07T03:33:47.425Z,30.3
2023-10-07T03:34:49.681Z,30.3
2023-10-07T03:35:51.713Z,30.3
2023-10-07T03:36:55.234Z,30.2
2023-10-07T03:37:57.023Z,30.2
2023-10-07T03:38:59.453Z,30.2
2023-10-07T03:40:01.622Z,30.2
2023-10-07T03:41:03.463Z,30.2
2023-10-07T03:42:05.431Z,30.2
2023-10-07T03:43:07.320Z,30.2
2023-10-07T03:44:10.395Z,30.2
2023-10-07T03:45:13.529Z,30.2
2023-10-07T03:46:16.019Z,30.2
2023-10-07T03:47:18.342Z,30.2
2023-10-07T03:48:20.702Z,30.2
2023-10-07T03:49:22.881Z,30.2
2023-10-07T03:50:25.032Z,30.2
2023-10-07T03:51:26.940Z,30.2
2023-10-07T03:52:29.168Z,30.2
2023-10-07T03:53:31.496Z,30.2
2023-10-07T03:54:33.721Z,30.2
2023-10-07T03:55:35.707Z,30.2
2023-10-07T03:56:37.671Z,30.2
2023-10-07T03:57:39.749Z,30.2
2023-10-07T03:58:41.735Z,30.2
2023-10-07T03:59:43.984Z,30.2
2023-10-07T04:00:46.086Z,30.1
2023-10-07T04:01:48.241Z,30.1
2023-10-07T04:02:50.984Z,30.1
2023-10-07T04:03:53.248Z,30.1
2023-10-07T04:04:55.379Z,30.1
2023-10-07T04:05:57.376Z,30.1
2023-10-07T04:06:59.471Z,30.1
2023-10-07T04:08:01.690Z,30.1
2023-10-07T04:09:04.075Z,30.1
2023-10-07T04:10:06.023Z,30.1
2023-10-07T04:11:08.210Z,30.1
2023-10-07T04:12:10.430Z,30.1
2023-10-07T04:13:12.524Z,30.1
2023-10-07T04:14:14.922Z,30.1
2023-10-07T04:15:16.947Z,30.1
2023-10-07T04:16:18.998Z,30.1
2023-10-07T04:17:21.267Z,30.1
2023-10-07T04:18:23.633Z,30.1
2023-10-07T04:19:25.977Z,30.1
2023-10-07T04:20:28.529Z,30.1
2023-10-07T04:21:30.859Z,30.1
2023-10-07T04:22:33.160Z,30.1
2023-10-07T04:23:35.340Z,30.1
2023-10-07T04:24:37.248Z,30.1
2023-10-07T04:25:39.364Z,30.1
2023-10-07T04:26:41.787Z,30.1
2023-10-07T04:27:44.138Z,30.1
2023-10-07T04:28:46.365Z,30.1
2023-10-07T04:29:48.980Z,30.1
2023-10-07T04:30:51.669Z,30.1
2023-10-07T04:31:54.170Z,30.1
2023-10-07T04:32:56.877Z,30.1
2023-10-07T04:33:59.223Z,30
2023-10-07T04:35:01.688Z,30
2023-10-07T04:36:04.025Z,30.1
2023-10-07T04:37:05.969Z,30
2023-10-07T04:38:08.202Z,30
2023-10-07T04:39:10.466Z,30
2023-10-07T04:40:12.623Z,30
2023-10-07T04:41:14.826Z,30
2023-10-07T04:42:16.974Z,30
2023-10-07T04:43:18.870Z,30
2023-10-07T04:44:21.091Z,30
2023-10-07T04:45:23.036Z,30
2023-10-07T04:46:25.754Z,30
2023-10-07T04:47:28.424Z,30
2023-10-07T04:48:30.506Z,30
2023-10-07T04:49:32.824Z,30
2023-10-07T04:50:35.223Z,30
2023-10-07T04:51:36.943Z,30
2023-10-07T04:52:38.770Z,30
2023-10-07T04:53:40.917Z,30
2023-10-07T04:54:43.152Z,30
2023-10-07T04:55:45.129Z,30
2023-10-07T04:56:47.316Z,30
2023-10-07T04:57:48.830Z,30
2023-10-07T04:58:50.936Z,30
2023-10-07T04:59:53.119Z,30
2023-10-07T05:00:55.018Z,30
2023-10-07T05:01:57.632Z,30
2023-10-07T05:03:00.288Z,30
2023-10-07T05:04:02.574Z,30
2023-10-07T05:05:04.749Z,30
2023-10-07T05:06:06.852Z,30
2023-10-07T05:07:08.978Z,30
2023-10-07T05:08:11.227Z,30
2023-10-07T05:09:13.856Z,30
2023-10-07T05:10:15.973Z,30
2023-10-07T05:11:17.859Z,30
2023-10-07T05:12:19.753Z,30
2023-10-07T05:13:21.666Z,30
2023-10-07T05:14:24.003Z,30
2023-10-07T05:15:26.176Z,30
2023-10-07T05:16:28.473Z,30
2023-10-07T05:17:31.120Z,30
2023-10-07T05:18:33.749Z,30
2023-10-07T05:19:35.756Z,30
2023-10-07T05:20:38.104Z,30
2023-10-07T05:21:40.326Z,30
2023-10-07T05:22:42.424Z,30
2023-10-07T05:23:44.119Z,30
2023-10-07T05:24:46.005Z,30
2023-10-07T05:25:48.321Z,30
2023-10-07T05:26:50.565Z,30
2023-10-07T05:27:52.300Z,30
2023-10-07T05:28:54.443Z,30
2023-10-07T05:29:56.436Z,30
2023-10-07T05:30:58.531Z,30
2023-10-07T05:32:00.706Z,30
2023-10-07T05:33:03.086Z,30
2023-10-07T05:34:05.108Z,30
2023-10-07T05:35:06.789Z,30
2023-10-07T05:36:08.925Z,30
2023-10-07T05:37:11.230Z,29.9
2023-10-07T05:38:13.803Z,29.9
2023-10-07T05:39:16.046Z,29.9
2023-10-07T05:40:17.792Z,29.9
2023-10-07T05:41:20.037Z,29.9
2023-10-07T05:42:21.807Z,29.9
2023-10-07T05:43:23.897Z,29.9
2023-10-07T05:44:26.056Z,29.9
2023-10-07T05:45:28.143Z,29.9
2023-10-07T05:46:30.029Z,29.9
2023-10-07T05:47:32.262Z,29.9
2023-10-07T05:48:34.032Z,29.9
2023-10-07T05:49:36.350Z,29.9
2023-10-07T05:50:38.387Z,29.9
2023-10-07T05:51:40.667Z,29.9
2023-10-07T05:52:42.937Z,29.9
2023-10-07T05:53:45.143Z,29.9
2023-10-07T05:54:47.048Z,29.9
2023-10-07T05:55:49.210Z,29.9
2023-10-07T05:56:51.439Z,29.9
2023-10-07T05:57:53.542Z,29.9
2023-10-07T05:58:55.770Z,29.9
2023-10-07T05:59:57.909Z,29.9
2023-10-07T06:01:00.359Z,29.9
2023-10-07T06:02:02.546Z,29.9
2023-10-07T06:03:05.043Z,29.9
2023-10-07T06:04:07.351Z,29.9
2023-10-07T06:05:09.776Z,29.9
2023-10-07T06:06:12.031Z,29.9
2023-10-07T06:07:14.168Z,29.9
2023-10-07T06:08:16.651Z,29.9
2023-10-07T06:09:18.737Z,29.9
2023-10-07T06:10:20.958Z,29.9
2023-10-07T06:11:22.838Z,29.9
2023-10-07T06:12:24.915Z,29.9
2023-10-07T06:13:26.450Z,29.9
2023-10-07T06:14:28.137Z,29.9
2023-10-07T06:15:30.254Z,29.9
2023-10-07T06:16:32.353Z,29.9
2023-10-07T06:17:37.711Z,29.9
2023-10-07T06:18:41.582Z,29.9
2023-10-07T06:19:43.749Z,29.9
2023-10-07T06:20:46.049Z,29.9
2023-10-07T06:21:48.208Z,29.9
2023-10-07T06:22:50.352Z,29.9
2023-10-07T06:23:52.343Z,29.9
2023-10-07T06:24:54.436Z,29.9
2023-10-07T06:25:56.493Z,29.9
2023-10-07T06:26:58.701Z,29.9
2023-10-07T06:28:00.433Z,29.9
2023-10-07T06:29:02.481Z,29.9
2023-10-07T06:30:04.733Z,29.9
2023-10-07T06:31:06.932Z,29.9
2023-10-07T06:32:09.253Z,29.9
2023-10-07T06:33:11.623Z,29.9
2023-10-07T06:34:14.434Z,29.9
2023-10-07T06:35:16.643Z,29.9
2023-10-07T06:36:18.812Z,29.9
2023-10-07T06:37:20.918Z,29.9
2023-10-07T06:38:23.058Z,29.9
2023-10-07T06:39:25.215Z,29.9
2023-10-07T06:40:27.359Z,29.9
2023-10-07T06:41:29.456Z,29.9
2023-10-07T06:42:31.587Z,29.9
2023-10-07T06:43:33.696Z,29.9
2023-10-07T06:44:35.432Z,29.9
2023-10-07T06:45:37.861Z,29.9
2023-10-07T06:46:40.157Z,29.9
2023-10-07T06:47:42.541Z,29.9
2023-10-07T06:48:44.856Z,29.9
2023-10-07T06:49:47.105Z,29.9
2023-10-07T06:50:49.564Z,29.9
2023-10-07T06:51:51.689Z,29.9
2023-10-07T06:52:53.959Z,29.9
2023-10-07T06:53:56.029Z,29.9
2023-10-07T06:56:03.351Z,29.9
2023-10-07T06:57:05.694Z,29.9
2023-10-07T06:58:07.778Z,29.9
2023-10-07T06:59:09.829Z,29.8
2023-10-07T07:00:12.076Z,29.8
2023-10-07T07:01:14.318Z,29.9
2023-10-07T07:02:16.612Z,29.9
2023-10-07T07:03:19.587Z,29.8
2023-10-07T07:04:22.868Z,29.8
2023-10-07T07:05:25.257Z,29.8
2023-10-07T07:06:27.193Z,29.8
2023-10-07T07:07:29.316Z,29.8
2023-10-07T07:08:31.247Z,29.8
2023-10-07T07:09:33.465Z,29.8
2023-10-07T07:10:36.070Z,29.8
2023-10-07T07:11:38.237Z,29.8
2023-10-07T07:12:40.379Z,29.8
2023-10-07T07:13:42.651Z,29.8
2023-10-07T07:14:44.892Z,29.9
2023-10-07T07:15:47.093Z,29.8
2023-10-07T07:16:49.512Z,29.8
2023-10-07T07:17:51.779Z,29.8
2023-10-07T07:18:54.009Z,29.8
2023-10-07T07:19:56.438Z,29.8
2023-10-07T07:20:58.715Z,29.8
2023-10-07T07:22:00.657Z,29.8
2023-10-07T07:23:02.904Z,29.8
2023-10-07T07:24:05.141Z,29.8
2023-10-07T07:25:07.428Z,29.8
2023-10-07T07:26:09.711Z,29.8
2023-10-07T07:27:12.110Z,29.8
2023-10-07T07:28:14.418Z,29.8
2023-10-07T07:29:16.597Z,29.8
2023-10-07T07:30:18.873Z,29.8
2023-10-07T07:31:21.916Z,29.8
2023-10-07T07:32:24.301Z,29.8
2023-10-07T07:33:26.539Z,29.8
2023-10-07T07:34:28.659Z,29.8
2023-10-07T07:35:30.749Z,29.8
2023-10-07T07:36:32.946Z,29.8
2023-10-07T07:37:35.073Z,29.8
2023-10-07T07:38:37.201Z,29.8
2023-10-07T07:39:39.310Z,29.8
2023-10-07T07:40:41.696Z,29.8
2023-10-07T07:41:43.902Z,29.8
2023-10-07T07:42:45.882Z,29.8
2023-10-07T07:43:48.138Z,29.8
2023-10-07T07:44:50.436Z,29.8
2023-10-07T07:45:52.508Z,29.8
2023-10-07T07:47:59.902Z,29.8
2023-10-07T07:49:02.713Z,29.8
2023-10-07T07:50:04.967Z,29.8
2023-10-07T07:51:07.225Z,29.8
2023-10-07T07:52:09.465Z,29.8
2023-10-07T07:53:11.912Z,29.8
2023-10-07T07:54:14.452Z,29.8
2023-10-07T07:55:16.556Z,29.8
2023-10-07T07:56:19.255Z,29.8
2023-10-07T07:57:21.526Z,29.8
2023-10-07T07:58:23.439Z,29.8
2023-10-07T07:59:25.692Z,29.8
2023-10-07T08:00:27.948Z,29.8
2023-10-07T08:01:30.284Z,29.8
2023-10-07T08:02:32.860Z,29.8
2023-10-07T08:03:35.944Z,29.8
2023-10-07T08:04:39.363Z,29.8
2023-10-07T08:05:42.609Z,29.8
2023-10-07T08:06:45.064Z,29.9
2023-10-07T08:07:47.049Z,29.8
2023-10-07T08:08:49.230Z,29.8
2023-10-07T08:09:51.248Z,29.8
2023-10-07T08:10:53.022Z,29.8
2023-10-07T08:11:55.280Z,29.8
2023-10-07T08:12:57.171Z,29.8
2023-10-07T08:13:59.181Z,29.8
2023-10-07T08:15:01.681Z,29.8
2023-10-07T08:16:03.954Z,29.8
2023-10-07T08:17:06.217Z,29.8
2023-10-07T08:18:09.230Z,29.8
2023-10-07T08:19:11.736Z,29.8
2023-10-07T08:20:13.730Z,29.8
2023-10-07T08:21:16.400Z,29.8
2023-10-07T08:22:18.119Z,29.8
2023-10-07T08:23:19.747Z,29.8
2023-10-07T08:24:21.781Z,29.8
2023-10-07T08:25:24.167Z,29.8
2023-10-07T08:26:26.440Z,29.8
2023-10-07T08:27:28.584Z,29.8
2023-10-07T08:28:30.761Z,29.8
2023-10-07T08:29:32.462Z,29.8
2023-10-07T08:30:34.736Z,29.8
2023-10-07T08:31:36.802Z,29.8
2023-10-07T08:32:39.153Z,29.8
2023-10-07T08:33:41.388Z,29.8
2023-10-07T08:34:43.605Z,29.8
2023-10-07T08:35:45.817Z,29.8
2023-10-07T08:36:47.732Z,29.8
2023-10-07T08:37:50.334Z,29.8
2023-10-07T08:38:52.195Z,29.8
2023-10-07T08:39:54.252Z,29.8
2023-10-07T08:40:56.332Z,29.8
2023-10-07T08:41:58.571Z,29.8
2023-10-07T08:43:01.149Z,29.8
2023-10-07T08:44:03.311Z,29.8
2023-10-07T08:45:05.334Z,29.8
2023-10-07T08:46:07.562Z,29.8
2023-10-07T08:47:10.089Z,29.8
2023-10-07T08:48:12.478Z,29.8
2023-10-07T08:49:14.715Z,29.8
2023-10-07T08:50:17.038Z,29.8
2023-10-07T08:51:19.075Z,29.8
2023-10-07T08:52:21.015Z,29.8
2023-10-07T08:53:23.063Z,29.8
2023-10-07T08:54:24.894Z,29.8
2023-10-07T08:55:26.964Z,29.8
2023-10-07T08:56:29.073Z,29.8
2023-10-07T08:57:31.272Z,29.8
2023-10-07T08:58:33.550Z,29.8
2023-10-07T08:59:35.662Z,29.8
2023-10-07T09:00:37.918Z,29.8
2023-10-07T09:01:40.341Z,29.8
2023-10-07T09:02:42.521Z,29.8
2023-10-07T09:03:44.922Z,29.8
2023-10-07T09:04:47.412Z,29.8
2023-10-07T09:05:49.974Z,29.8
2023-10-07T09:06:52.289Z,29.8
2023-10-07T09:07:54.570Z,29.8
2023-10-07T09:08:56.760Z,29.8
2023-10-07T09:09:59.005Z,29.8
2023-10-07T09:11:01.301Z,29.8
2023-10-07T09:12:03.480Z,29.8
2023-10-07T09:13:05.668Z,29.8
2023-10-07T09:14:08.125Z,29.9
2023-10-07T09:15:11.029Z,29.9
2023-10-07T09:16:13.119Z,29.9
2023-10-07T09:17:15.906Z,29.9
2023-10-07T09:18:18.086Z,29.9
2023-10-07T09:19:19.964Z,29.9
2023-10-07T09:20:22.265Z,29.9
2023-10-07T09:21:24.484Z,29.9
2023-10-07T09:22:26.603Z,29.9
2023-10-07T09:23:28.851Z,29.9
2023-10-07T09:24:30.561Z,29.9
2023-10-07T09:25:32.462Z,29.9
2023-10-07T09:26:34.256Z,29.9
2023-10-07T09:27:36.565Z,29.9
2023-10-07T09:28:38.690Z,29.9
2023-10-07T09:29:40.795Z,29.9
2023-10-07T09:30:43.055Z,29.9
2023-10-07T09:31:45.536Z,29.9
2023-10-07T09:32:47.714Z,29.9
2023-10-07T09:33:49.929Z,29.9
2023-10-07T09:34:52.193Z,29.9
2023-10-07T09:35:54.332Z,29.9
2023-10-07T09:36:56.439Z,29.9
2023-10-07T09:37:58.824Z,29.9
2023-10-07T09:39:01.183Z,29.9
2023-10-07T09:40:03.289Z,29.9
2023-10-07T09:41:05.537Z,29.9
2023-10-07T09:42:07.759Z,29.9
2023-10-07T09:43:09.734Z,29.9
2023-10-07T09:44:11.910Z,29.9
2023-10-07T09:45:14.133Z,29.9
2023-10-07T09:47:21.551Z,29.9
2023-10-07T09:48:24.418Z,29.9
2023-10-07T09:49:26.660Z,29.9
2023-10-07T09:50:29.010Z,29.9
2023-10-07T09:51:31.018Z,29.9
2023-10-07T09:52:33.164Z,29.9
2023-10-07T09:53:35.568Z,29.9
2023-10-07T09:54:37.952Z,29.9
2023-10-07T09:55:40.074Z,29.9
2023-10-07T09:56:42.523Z,29.9
2023-10-07T09:57:44.720Z,29.9
2023-10-07T09:58:46.550Z,29.9
2023-10-07T09:59:48.741Z,29.9
2023-10-07T10:00:50.697Z,29.9
2023-10-07T10:01:53.187Z,29.9
2023-10-07T10:02:55.716Z,29.8
2023-10-07T10:03:58.176Z,29.9
2023-10-07T10:05:00.852Z,29.9
2023-10-07T10:06:02.866Z,29.9
2023-10-07T10:07:04.776Z,29.9
2023-10-07T10:08:07.026Z,29.9
2023-10-07T10:09:09.067Z,29.9
2023-10-07T10:10:11.188Z,29.9
2023-10-07T10:11:13.248Z,29.8
2023-10-07T10:12:15.472Z,29.8
2023-10-07T10:13:17.659Z,29.9
2023-10-07T10:15:24.799Z,29.9
2023-10-07T10:16:27.038Z,29.9
2023-10-07T10:17:29.631Z,29.9
2023-10-07T10:18:32.159Z,29.9
2023-10-07T10:19:34.308Z,29.8
2023-10-07T10:20:36.354Z,29.9
2023-10-07T10:21:38.425Z,29.9
2023-10-07T10:22:40.528Z,29.9
2023-10-07T10:23:42.781Z,29.9
2023-10-07T10:24:44.845Z,29.9
2023-10-07T10:25:47.032Z,29.9
2023-10-07T10:26:49.039Z,29.9
2023-10-07T10:27:51.142Z,29.9
2023-10-07T10:28:53.367Z,29.8
2023-10-07T10:29:55.706Z,29.8
2023-10-07T10:30:58.252Z,29.8
2023-10-07T10:32:00.903Z,29.8
2023-10-07T10:33:03.347Z,29.8
2023-10-07T10:34:05.524Z,29.8
2023-10-07T10:35:08.094Z,29.8
2023-10-07T10:36:10.543Z,29.8
2023-10-07T10:37:12.466Z,29.8
2023-10-07T10:38:14.619Z,29.8
2023-10-07T10:40:21.907Z,29.8
2023-10-07T10:41:24.055Z,29.8
2023-10-07T10:42:26.264Z,29.8
2023-10-07T10:43:28.385Z,29.9
2023-10-07T10:44:30.317Z,29.8
2023-10-07T10:45:32.285Z,29.8
2023-10-07T10:46:34.421Z,29.8
2023-10-07T10:47:36.949Z,29.8
2023-10-07T10:48:39.307Z,29.8
2023-10-07T10:49:41.417Z,29.8
2023-10-07T10:50:43.604Z,29.8
2023-10-07T10:51:45.514Z,29.8
2023-10-07T10:52:47.473Z,29.8
2023-10-07T10:53:49.690Z,29.8
2023-10-07T10:54:51.614Z,29.8
2023-10-07T10:55:53.804Z,29.8
2023-10-07T10:56:55.800Z,29.8
2023-10-07T10:57:57.904Z,29.8
2023-10-07T10:59:00.136Z,29.8
2023-10-07T11:00:02.134Z,29.8
2023-10-07T11:01:04.538Z,29.8
2023-10-07T11:02:06.902Z,29.8
2023-10-07T11:03:09.347Z,29.8
2023-10-07T11:04:12.995Z,29.8
2023-10-07T11:05:16.691Z,29.8
2023-10-07T11:06:19.186Z,29.8
2023-10-07T11:07:21.461Z,29.8
2023-10-07T11:08:23.493Z,29.8
2023-10-07T11:09:25.984Z,29.8
2023-10-07T11:10:27.935Z,29.8
2023-10-07T11:11:30.234Z,29.8
2023-10-07T11:12:32.543Z,29.8
2023-10-07T11:13:34.672Z,29.8
2023-10-07T11:14:36.568Z,29.8
2023-10-07T11:15:38.709Z,29.8
2023-10-07T11:16:41.066Z,29.8
2023-10-07T11:17:43.557Z,29.8
2023-10-07T11:18:45.962Z,29.8
2023-10-07T11:19:49.117Z,29.8
2023-10-07T11:20:51.370Z,29.8
2023-10-07T11:21:53.335Z,29.8
2023-10-07T11:22:55.684Z,29.8
2023-10-07T11:23:57.897Z,29.8
2023-10-07T11:24:59.865Z,29.8
2023-10-07T11:26:01.682Z,29.8
2023-10-07T11:27:03.928Z,29.8
2023-10-07T11:28:06.032Z,29.8
2023-10-07T11:29:08.040Z,29.8
2023-10-07T11:30:10.345Z,29.8
2023-10-07T11:31:12.825Z,29.8
2023-10-07T11:32:15.332Z,29.8
2023-10-07T11:33:19.018Z,29.8
2023-10-07T11:34:21.824Z,29.8
2023-10-07T11:35:23.613Z,29.8
2023-10-07T11:36:25.859Z,29.8
2023-10-07T11:37:28.040Z,29.8
2023-10-07T11:38:29.881Z,29.8
2023-10-07T11:39:32.141Z,29.8
2023-10-07T11:40:34.025Z,29.8
2023-10-07T11:41:36.153Z,29.8
2023-10-07T11:42:37.902Z,29.8
2023-10-07T11:43:39.788Z,29.8
2023-10-07T11:44:41.724Z,29.8
2023-10-07T11:45:43.606Z,29.8
2023-10-07T11:46:45.970Z,29.8
2023-10-07T11:47:48.313Z,29.8
2023-10-07T11:48:50.322Z,29.8
2023-10-07T11:49:52.688Z,29.8
2023-10-07T11:50:55.497Z,29.8
2023-10-07T11:51:57.476Z,29.8
2023-10-07T11:52:59.790Z,29.8
2023-10-07T11:54:01.793Z,29.8
2023-10-07T11:55:03.902Z,29.8
2023-10-07T11:56:06.012Z,29.8
2023-10-07T11:57:08.114Z,29.8
2023-10-07T11:58:10.253Z,29.8
2023-10-07T11:59:13.081Z,29.8
2023-10-07T12:00:15.650Z,29.8
2023-10-07T12:01:17.884Z,29.8
2023-10-07T12:02:20.208Z,29.8
2023-10-07T12:03:22.386Z,29.8
2023-10-07T12:04:24.765Z,29.8
2023-10-07T12:05:27.076Z,29.8
2023-10-07T12:06:29.279Z,29.8
2023-10-07T12:07:31.417Z,29.8
2023-10-07T12:08:33.602Z,29.8
2023-10-07T12:09:35.739Z,29.8
2023-10-07T12:10:37.701Z,29.8
2023-10-07T12:11:39.637Z,29.8
2023-10-07T12:12:41.623Z,29.8
2023-10-07T12:13:43.619Z,29.8
2023-10-07T12:14:45.592Z,29.8
2023-10-07T12:16:52.937Z,29.8
2023-10-07T12:17:55.491Z,29.8
2023-10-07T12:18:57.939Z,29.8
2023-10-07T12:20:00.313Z,29.8
2023-10-07T12:22:08.723Z,29.8
2023-10-07T12:23:11.100Z,29.8
2023-10-07T12:24:13.501Z,29.8
2023-10-07T12:25:15.633Z,29.8
2023-10-07T12:26:18.927Z,29.8
2023-10-07T12:27:21.144Z,29.8
2023-10-07T12:28:23.263Z,29.8
2023-10-07T12:29:25.654Z,29.8
2023-10-07T12:30:27.881Z,29.8
2023-10-07T12:31:30.146Z,29.8
2023-10-07T12:32:32.788Z,29.8
2023-10-07T12:34:40.158Z,29.8
2023-10-07T12:35:42.355Z,29.8
2023-10-07T12:36:44.536Z,29.8
2023-10-07T12:37:46.740Z,29.8
2023-10-07T12:38:48.968Z,29.8
2023-10-07T12:39:51.168Z,29.8
2023-10-07T12:40:53.424Z,29.8
2023-10-07T12:41:55.754Z,29.8
2023-10-07T12:42:57.466Z,29.8
2023-10-07T12:43:59.499Z,29.8
2023-10-07T12:45:01.733Z,29.8
2023-10-07T12:46:04.040Z,29.8
2023-10-07T12:47:06.507Z,29.8
2023-10-07T12:48:08.845Z,29.8
2023-10-07T12:49:10.544Z,29.8
2023-10-07T12:50:12.764Z,29.8
2023-10-07T12:51:14.824Z,29.8
2023-10-07T12:52:16.946Z,29.8
2023-10-07T12:53:18.922Z,29.8
2023-10-07T12:54:21.246Z,29.8
2023-10-07T12:55:23.377Z,29.8
2023-10-07T12:56:25.604Z,29.8
2023-10-07T12:57:27.957Z,29.8
2023-10-07T12:58:30.106Z,29.8
2023-10-07T12:59:32.254Z,29.8
2023-10-07T13:00:34.385Z,29.8
2023-10-07T13:01:36.984Z,29.8
2023-10-07T13:02:39.657Z,29.8
2023-10-07T13:03:42.278Z,29.8
2023-10-07T13:04:44.615Z,29.8
2023-10-07T13:05:46.764Z,29.8
2023-10-07T13:06:48.740Z,29.8
2023-10-07T13:07:50.779Z,29.8
2023-10-07T13:08:52.781Z,29.8
2023-10-07T13:09:54.928Z,29.8
2023-10-07T13:10:57.208Z,29.8
2023-10-07T13:11:59.406Z,29.8
2023-10-07T13:13:01.584Z,29.8
2023-10-07T13:14:03.810Z,29.8
2023-10-07T13:15:06.004Z,29.8
2023-10-07T13:16:08.426Z,29.8
2023-10-07T13:17:10.769Z,29.8
2023-10-07T13:18:12.871Z,29.7
2023-10-07T13:19:15.491Z,29.7
2023-10-07T13:20:17.865Z,29.8
2023-10-07T13:21:20.847Z,29.8
2023-10-07T13:22:23.109Z,29.8
2023-10-07T13:23:25.556Z,29.8
2023-10-07T13:24:27.821Z,29.8
2023-10-07T13:25:29.836Z,29.7
2023-10-07T13:26:32.246Z,29.8
2023-10-07T13:27:34.509Z,29.7
2023-10-07T13:28:36.623Z,29.8
2023-10-07T13:29:38.748Z,29.8
2023-10-07T13:30:40.839Z,29.8
2023-10-07T13:31:42.813Z,29.7
2023-10-07T13:32:44.837Z,29.8
2023-10-07T13:33:47.254Z,29.7
2023-10-07T13:34:49.859Z,29.8
2023-10-07T13:35:52.102Z,29.8
2023-10-07T13:36:54.019Z,29.8
2023-10-07T13:37:56.216Z,29.8
2023-10-07T13:38:58.484Z,29.8
2023-10-07T13:40:00.650Z,29.8
2023-10-07T13:41:03.221Z,29.8
2023-10-07T13:42:05.245Z,29.7
2023-10-07T13:43:07.328Z,29.7
2023-10-07T13:44:09.833Z,29.7
2023-10-07T13:45:13.488Z,29.8
2023-10-07T13:46:15.641Z,29.8
2023-10-07T13:47:18.064Z,29.8
2023-10-07T13:48:20.653Z,29.8
2023-10-07T13:49:23.048Z,29.8
2023-10-07T13:50:25.260Z,29.8
2023-10-07T13:51:27.575Z,29.8
2023-10-07T13:52:29.693Z,29.8
2023-10-07T13:53:31.853Z,29.8
2023-10-07T13:54:34.126Z,29.8
2023-10-07T13:55:36.068Z,29.8
2023-10-07T13:56:38.271Z,29.8
2023-10-07T13:57:40.609Z,29.7
2023-10-07T13:58:42.728Z,29.8
2023-10-07T13:59:44.907Z,29.8
2023-10-07T14:00:47.224Z,29.7